sensor_id;sensor_type;location;lat;lon;timestamp;P1;durP1;ratioP1;P2;durP2;ratioP2
19257;SDS011;9763;48.780;9.212;2023-11-18T00:02:00;3.27;;;1.73;;
19257;SDS011;9763;48.780;9.212;2023-11-18T00:05:25;2.00;;;1.50;;
19257;SDS011;9763;48.780;9.212;2023-11-18T00:08:49;1.70;;;1.60;;
19257;SDS011;9763;48.780;9.212;2023-11-18T00:12:14;2.10;;;1.87;;
19257;SDS011;9763;48.780;9.212;2023-11-18T00:15:38;2.40;;;1.70;;
19257;SDS011;9763;48.780;9.212;2023-11-18T00:19:02;2.10;;;1.90;;
19257;SDS011;9763;48.780;9.212;2023-11-18T00:22:26;1.70;;;1.60;;
19257;SDS011;9763;48.780;9.212;2023-11-18T00:25:50;1.50;;;1.40;;
19257;SDS011;9763;48.780;9.212;2023-11-18T00:29:16;1.80;;;1.53;;
19257;SDS011;9763;48.780;9.212;2023-11-18T00:32:40;1.27;;;1.10;;
19257;SDS011;9763;48.780;9.212;2023-11-18T00:36:04;1.73;;;1.33;;
19257;SDS011;9763;48.780;9.212;2023-11-18T00:39:29;1.40;;;1.20;;
19257;SDS011;9763;48.780;9.212;2023-11-18T00:42:53;1.30;;;1.10;;
19257;SDS011;9763;48.780;9.212;2023-11-18T00:46:18;1.93;;;1.30;;
19257;SDS011;9763;48.780;9.212;2023-11-18T00:49:42;1.40;;;1.30;;
19257;SDS011;9763;48.780;9.212;2023-11-18T00:53:06;1.47;;;1.37;;
19257;SDS011;9763;48.780;9.212;2023-11-18T00:56:30;1.40;;;1.30;;
19257;SDS011;9763;48.780;9.212;2023-11-18T00:59:53;1.30;;;1.20;;
19257;SDS011;9763;48.780;9.212;2023-11-18T01:03:18;1.60;;;1.40;;
19257;SDS011;9763;48.780;9.212;2023-11-18T01:06:42;1.40;;;1.30;;
19257;SDS011;9763;48.780;9.212;2023-11-18T01:10:06;1.50;;;1.40;;
19257;SDS011;9763;48.780;9.212;2023-11-18T01:13:32;2.13;;;1.40;;
19257;SDS011;9763;48.780;9.212;2023-11-18T01:16:55;1.50;;;1.20;;
19257;SDS011;9763;48.780;9.212;2023-11-18T01:20:20;1.43;;;1.27;;
19257;SDS011;9763;48.780;9.212;2023-11-18T01:23:45;1.60;;;1.27;;
19257;SDS011;9763;48.780;9.212;2023-11-18T01:27:08;1.50;;;1.20;;
19257;SDS011;9763;48.780;9.212;2023-11-18T01:30:33;3.73;;;1.10;;
19257;SDS011;9763;48.780;9.212;2023-11-18T01:33:56;1.40;;;1.10;;
19257;SDS011;9763;48.780;9.212;2023-11-18T01:37:22;1.30;;;1.13;;
19257;SDS011;9763;48.780;9.212;2023-11-18T01:40:46;1.70;;;1.20;;
19257;SDS011;9763;48.780;9.212;2023-11-18T01:44:10;1.80;;;1.70;;
19257;SDS011;9763;48.780;9.212;2023-11-18T01:47:36;1.30;;;1.20;;
19257;SDS011;9763;48.780;9.212;2023-11-18T01:51:01;1.50;;;1.30;;
19257;SDS011;9763;48.780;9.212;2023-11-18T01:54:30;1.40;;;1.20;;
19257;SDS011;9763;48.780;9.212;2023-11-18T01:57:54;1.73;;;1.53;;
19257;SDS011;9763;48.780;9.212;2023-11-18T02:01:19;1.77;;;1.67;;
19257;SDS011;9763;48.780;9.212;2023-11-18T02:04:44;2.50;;;1.00;;
19257;SDS011;9763;48.780;9.212;2023-11-18T02:08:07;1.70;;;1.40;;
19257;SDS011;9763;48.780;9.212;2023-11-18T02:11:35;1.40;;;1.30;;
19257;SDS011;9763;48.780;9.212;2023-11-18T02:15:06;1.97;;;1.20;;
19257;SDS011;9763;48.780;9.212;2023-11-18T02:18:34;1.43;;;1.17;;
19257;SDS011;9763;48.780;9.212;2023-11-18T02:22:03;1.30;;;1.10;;
19257;SDS011;9763;48.780;9.212;2023-11-18T02:25:29;1.40;;;1.10;;
19257;SDS011;9763;48.780;9.212;2023-11-18T02:29:04;1.20;;;0.90;;
19257;SDS011;9763;48.780;9.212;2023-11-18T02:32:29;1.30;;;1.00;;
19257;SDS011;9763;48.780;9.212;2023-11-18T02:36:03;1.30;;;1.00;;
19257;SDS011;9763;48.780;9.212;2023-11-18T02:39:38;1.30;;;0.90;;
19257;SDS011;9763;48.780;9.212;2023-11-18T02:43:06;1.23;;;0.97;;
19257;SDS011;9763;48.780;9.212;2023-11-18T02:46:33;1.20;;;0.90;;
19257;SDS011;9763;48.780;9.212;2023-11-18T02:49:57;1.30;;;1.07;;
19257;SDS011;9763;48.780;9.212;2023-11-18T02:53:27;1.10;;;0.80;;
19257;SDS011;9763;48.780;9.212;2023-11-18T02:56:51;1.37;;;1.10;;
19257;SDS011;9763;48.780;9.212;2023-11-18T03:00:15;1.37;;;1.10;;
19257;SDS011;9763;48.780;9.212;2023-11-18T03:03:41;1.40;;;1.00;;
19257;SDS011;9763;48.780;9.212;2023-11-18T03:07:05;3.00;;;1.20;;
19257;SDS011;9763;48.780;9.212;2023-11-18T03:10:30;1.20;;;0.87;;
19257;SDS011;9763;48.780;9.212;2023-11-18T03:13:56;1.20;;;0.80;;
19257;SDS011;9763;48.780;9.212;2023-11-18T03:17:20;1.13;;;0.80;;
19257;SDS011;9763;48.780;9.212;2023-11-18T03:20:46;1.40;;;1.00;;
19257;SDS011;9763;48.780;9.212;2023-11-18T03:24:10;1.23;;;0.83;;
19257;SDS011;9763;48.780;9.212;2023-11-18T03:27:34;1.30;;;1.00;;
19257;SDS011;9763;48.780;9.212;2023-11-18T03:30:59;1.57;;;1.00;;
19257;SDS011;9763;48.780;9.212;2023-11-18T03:34:23;1.20;;;0.90;;
19257;SDS011;9763;48.780;9.212;2023-11-18T03:37:49;1.23;;;0.83;;
19257;SDS011;9763;48.780;9.212;2023-11-18T03:41:13;1.10;;;0.80;;
19257;SDS011;9763;48.780;9.212;2023-11-18T03:44:38;1.40;;;0.90;;
19257;SDS011;9763;48.780;9.212;2023-11-18T03:48:02;1.40;;;0.93;;
19257;SDS011;9763;48.780;9.212;2023-11-18T03:51:26;1.17;;;0.87;;
19257;SDS011;9763;48.780;9.212;2023-11-18T03:54:51;1.40;;;1.13;;
19257;SDS011;9763;48.780;9.212;2023-11-18T03:58:14;1.23;;;0.90;;
19257;SDS011;9763;48.780;9.212;2023-11-18T04:01:38;1.30;;;1.00;;
19257;SDS011;9763;48.780;9.212;2023-11-18T04:05:02;1.30;;;1.07;;
19257;SDS011;9763;48.780;9.212;2023-11-18T04:08:27;1.43;;;1.03;;
19257;SDS011;9763;48.780;9.212;2023-11-18T04:11:52;1.13;;;0.77;;
19257;SDS011;9763;48.780;9.212;2023-11-18T04:15:16;1.20;;;0.80;;
19257;SDS011;9763;48.780;9.212;2023-11-18T04:18:40;1.20;;;0.90;;
19257;SDS011;9763;48.780;9.212;2023-11-18T04:22:05;1.10;;;0.80;;
19257;SDS011;9763;48.780;9.212;2023-11-18T04:25:28;1.20;;;0.80;;
19257;SDS011;9763;48.780;9.212;2023-11-18T04:28:54;1.30;;;0.90;;
19257;SDS011;9763;48.780;9.212;2023-11-18T04:32:17;1.37;;;0.83;;
19257;SDS011;9763;48.780;9.212;2023-11-18T04:35:41;1.30;;;0.90;;
19257;SDS011;9763;48.780;9.212;2023-11-18T04:39:04;1.10;;;0.80;;
19257;SDS011;9763;48.780;9.212;2023-11-18T04:42:28;1.20;;;0.90;;
19257;SDS011;9763;48.780;9.212;2023-11-18T04:45:53;1.30;;;1.00;;
19257;SDS011;9763;48.780;9.212;2023-11-18T04:49:17;1.20;;;0.90;;
19257;SDS011;9763;48.780;9.212;2023-11-18T04:52:41;1.20;;;0.90;;
19257;SDS011;9763;48.780;9.212;2023-11-18T04:56:04;1.20;;;0.70;;
19257;SDS011;9763;48.780;9.212;2023-11-18T04:59:32;1.10;;;0.70;;
19257;SDS011;9763;48.780;9.212;2023-11-18T05:02:57;1.20;;;0.77;;
19257;SDS011;9763;48.780;9.212;2023-11-18T05:06:21;2.13;;;0.80;;
19257;SDS011;9763;48.780;9.212;2023-11-18T05:09:45;1.20;;;0.80;;
19257;SDS011;9763;48.780;9.212;2023-11-18T05:13:08;1.20;;;0.90;;
19257;SDS011;9763;48.780;9.212;2023-11-18T05:16:32;1.17;;;0.87;;
19257;SDS011;9763;48.780;9.212;2023-11-18T05:19:57;1.10;;;0.83;;
19257;SDS011;9763;48.780;9.212;2023-11-18T05:23:22;1.30;;;1.00;;
19257;SDS011;9763;48.780;9.212;2023-11-18T05:26:47;1.40;;;1.00;;
19257;SDS011;9763;48.780;9.212;2023-11-18T05:30:11;1.20;;;0.80;;
19257;SDS011;9763;48.780;9.212;2023-11-18T05:33:35;1.27;;;0.90;;
19257;SDS011;9763;48.780;9.212;2023-11-18T05:37:00;1.20;;;0.87;;
19257;SDS011;9763;48.780;9.212;2023-11-18T05:40:25;1.67;;;1.10;;
19257;SDS011;9763;48.780;9.212;2023-11-18T05:43:50;1.40;;;1.00;;
19257;SDS011;9763;48.780;9.212;2023-11-18T05:47:14;1.30;;;1.00;;
19257;SDS011;9763;48.780;9.212;2023-11-18T05:50:38;1.40;;;1.20;;
19257;SDS011;9763;48.780;9.212;2023-11-18T05:54:03;3.00;;;1.00;;
19257;SDS011;9763;48.780;9.212;2023-11-18T05:57:28;1.60;;;1.13;;
19257;SDS011;9763;48.780;9.212;2023-11-18T06:00:51;1.30;;;1.10;;
19257;SDS011;9763;48.780;9.212;2023-11-18T06:04:15;1.40;;;1.03;;
19257;SDS011;9763;48.780;9.212;2023-11-18T06:07:39;1.30;;;1.10;;
19257;SDS011;9763;48.780;9.212;2023-11-18T06:11:07;1.20;;;1.00;;
19257;SDS011;9763;48.780;9.212;2023-11-18T06:14:36;1.30;;;0.87;;
19257;SDS011;9763;48.780;9.212;2023-11-18T06:17:59;1.37;;;1.10;;
19257;SDS011;9763;48.780;9.212;2023-11-18T06:21:24;1.60;;;1.10;;
19257;SDS011;9763;48.780;9.212;2023-11-18T06:24:51;1.30;;;1.00;;
19257;SDS011;9763;48.780;9.212;2023-11-18T06:28:17;1.40;;;1.07;;
19257;SDS011;9763;48.780;9.212;2023-11-18T06:31:40;1.33;;;1.10;;
19257;SDS011;9763;48.780;9.212;2023-11-18T06:35:05;1.50;;;1.20;;
19257;SDS011;9763;48.780;9.212;2023-11-18T06:38:30;1.90;;;1.43;;
19257;SDS011;9763;48.780;9.212;2023-11-18T06:41:55;1.80;;;1.13;;
19257;SDS011;9763;48.780;9.212;2023-11-18T06:45:21;2.77;;;1.40;;
19257;SDS011;9763;48.780;9.212;2023-11-18T06:48:44;1.70;;;1.50;;
19257;SDS011;9763;48.780;9.212;2023-11-18T06:52:08;1.50;;;1.20;;
19257;SDS011;9763;48.780;9.212;2023-11-18T06:55:34;1.40;;;1.30;;
19257;SDS011;9763;48.780;9.212;2023-11-18T06:58:58;2.30;;;1.50;;
19257;SDS011;9763;48.780;9.212;2023-11-18T07:02:23;1.90;;;1.67;;
19257;SDS011;9763;48.780;9.212;2023-11-18T07:05:46;1.83;;;1.70;;
19257;SDS011;9763;48.780;9.212;2023-11-18T07:09:10;2.00;;;1.80;;
19257;SDS011;9763;48.780;9.212;2023-11-18T07:12:39;1.93;;;1.73;;
19257;SDS011;9763;48.780;9.212;2023-11-18T07:16:03;2.00;;;1.77;;
19257;SDS011;9763;48.780;9.212;2023-11-18T07:19:32;1.70;;;1.60;;
19257;SDS011;9763;48.780;9.212;2023-11-18T07:22:56;1.93;;;1.70;;
19257;SDS011;9763;48.780;9.212;2023-11-18T07:26:22;1.53;;;1.40;;
19257;SDS011;9763;48.780;9.212;2023-11-18T07:29:47;4.67;;;4.27;;
19257;SDS011;9763;48.780;9.212;2023-11-18T07:33:11;2.50;;;2.27;;
19257;SDS011;9763;48.780;9.212;2023-11-18T07:36:37;2.30;;;2.10;;
19257;SDS011;9763;48.780;9.212;2023-11-18T07:40:01;2.50;;;1.90;;
19257;SDS011;9763;48.780;9.212;2023-11-18T07:43:27;1.97;;;1.77;;
19257;SDS011;9763;48.780;9.212;2023-11-18T07:46:50;1.70;;;1.60;;
19257;SDS011;9763;48.780;9.212;2023-11-18T07:50:14;2.30;;;2.10;;
19257;SDS011;9763;48.780;9.212;2023-11-18T07:53:40;2.10;;;1.90;;
19257;SDS011;9763;48.780;9.212;2023-11-18T07:57:04;2.50;;;2.30;;
19257;SDS011;9763;48.780;9.212;2023-11-18T08:00:32;2.40;;;2.20;;
19257;SDS011;9763;48.780;9.212;2023-11-18T08:03:57;2.00;;;1.50;;
19257;SDS011;9763;48.780;9.212;2023-11-18T08:07:25;1.97;;;1.77;;
19257;SDS011;9763;48.780;9.212;2023-11-18T08:10:51;2.17;;;1.97;;
19257;SDS011;9763;48.780;9.212;2023-11-18T08:14:19;2.20;;;2.00;;
19257;SDS011;9763;48.780;9.212;2023-11-18T08:17:49;1.90;;;1.80;;
19257;SDS011;9763;48.780;9.212;2023-11-18T08:21:13;1.70;;;1.60;;
19257;SDS011;9763;48.780;9.212;2023-11-18T08:24:38;1.83;;;1.73;;
19257;SDS011;9763;48.780;9.212;2023-11-18T08:28:03;2.73;;;2.47;;
19257;SDS011;9763;48.780;9.212;2023-11-18T08:31:28;1.80;;;1.60;;
19257;SDS011;9763;48.780;9.212;2023-11-18T08:34:52;1.90;;;1.80;;
19257;SDS011;9763;48.780;9.212;2023-11-18T08:38:16;2.37;;;2.17;;
19257;SDS011;9763;48.780;9.212;2023-11-18T08:41:41;1.60;;;1.50;;
19257;SDS011;9763;48.780;9.212;2023-11-18T08:45:09;1.77;;;1.67;;
19257;SDS011;9763;48.780;9.212;2023-11-18T08:48:36;2.67;;;1.80;;
19257;SDS011;9763;48.780;9.212;2023-11-18T08:52:00;1.50;;;1.30;;
19257;SDS011;9763;48.780;9.212;2023-11-18T08:55:24;2.27;;;1.60;;
19257;SDS011;9763;48.780;9.212;2023-11-18T08:59:01;1.80;;;1.43;;
19257;SDS011;9763;48.780;9.212;2023-11-18T09:02:26;2.20;;;1.57;;
19257;SDS011;9763;48.780;9.212;2023-11-18T09:05:55;1.40;;;1.30;;
19257;SDS011;9763;48.780;9.212;2023-11-18T09:09:26;4.33;;;1.40;;
19257;SDS011;9763;48.780;9.212;2023-11-18T09:12:50;1.50;;;1.23;;
19257;SDS011;9763;48.780;9.212;2023-11-18T09:16:17;1.30;;;1.00;;
19257;SDS011;9763;48.780;9.212;2023-11-18T09:19:43;1.50;;;1.33;;
19257;SDS011;9763;48.780;9.212;2023-11-18T09:23:08;1.40;;;1.30;;
19257;SDS011;9763;48.780;9.212;2023-11-18T09:26:31;1.50;;;1.33;;
19257;SDS011;9763;48.780;9.212;2023-11-18T09:29:55;3.27;;;1.47;;
19257;SDS011;9763;48.780;9.212;2023-11-18T09:33:19;1.87;;;1.17;;
19257;SDS011;9763;48.780;9.212;2023-11-18T09:36:56;1.43;;;1.10;;
19257;SDS011;9763;48.780;9.212;2023-11-18T09:40:20;1.40;;;1.00;;
19257;SDS011;9763;48.780;9.212;2023-11-18T09:43:51;1.30;;;1.10;;
19257;SDS011;9763;48.780;9.212;2023-11-18T09:47:18;1.30;;;1.03;;
19257;SDS011;9763;48.780;9.212;2023-11-18T09:50:50;1.30;;;1.00;;
19257;SDS011;9763;48.780;9.212;2023-11-18T09:54:18;2.40;;;0.90;;
19257;SDS011;9763;48.780;9.212;2023-11-18T09:57:55;1.40;;;1.00;;
19257;SDS011;9763;48.780;9.212;2023-11-18T10:01:30;1.50;;;1.10;;
19257;SDS011;9763;48.780;9.212;2023-11-18T10:05:05;1.30;;;0.90;;
19257;SDS011;9763;48.780;9.212;2023-11-18T10:08:34;1.37;;;1.00;;
19257;SDS011;9763;48.780;9.212;2023-11-18T10:12:02;1.70;;;0.90;;
19257;SDS011;9763;48.780;9.212;2023-11-18T10:15:27;1.93;;;1.00;;
19257;SDS011;9763;48.780;9.212;2023-11-18T10:18:53;1.10;;;0.80;;
19257;SDS011;9763;48.780;9.212;2023-11-18T10:22:23;1.80;;;1.10;;
19257;SDS011;9763;48.780;9.212;2023-11-18T10:25:50;1.30;;;0.97;;
19257;SDS011;9763;48.780;9.212;2023-11-18T10:29:16;1.57;;;1.10;;
19257;SDS011;9763;48.780;9.212;2023-11-18T10:32:40;1.20;;;0.90;;
19257;SDS011;9763;48.780;9.212;2023-11-18T10:36:06;1.30;;;0.90;;
19257;SDS011;9763;48.780;9.212;2023-11-18T10:39:46;1.87;;;0.90;;
19257;SDS011;9763;48.780;9.212;2023-11-18T10:43:13;1.70;;;1.40;;
19257;SDS011;9763;48.780;9.212;2023-11-18T10:46:40;1.20;;;0.80;;
19257;SDS011;9763;48.780;9.212;2023-11-18T10:50:04;1.37;;;1.03;;
19257;SDS011;9763;48.780;9.212;2023-11-18T11:16:36;1.30;;;0.80;;
19257;SDS011;9763;48.780;9.212;2023-11-18T11:20:06;1.80;;;0.77;;
19257;SDS011;9763;48.780;9.212;2023-11-18T11:23:42;1.27;;;0.90;;
19257;SDS011;9763;48.780;9.212;2023-11-18T11:27:17;1.77;;;0.80;;
19257;SDS011;9763;48.780;9.212;2023-11-18T11:30:58;1.20;;;0.73;;
19257;SDS011;9763;48.780;9.212;2023-11-18T11:34:42;1.30;;;0.80;;
19257;SDS011;9763;48.780;9.212;2023-11-18T11:38:16;1.20;;;0.80;;
19257;SDS011;9763;48.780;9.212;2023-11-18T11:41:43;1.23;;;0.70;;
19257;SDS011;9763;48.780;9.212;2023-11-18T11:45:08;1.10;;;0.63;;
19257;SDS011;9763;48.780;9.212;2023-11-18T11:48:42;1.10;;;0.60;;
19257;SDS011;9763;48.780;9.212;2023-11-18T11:52:12;1.37;;;0.70;;
19257;SDS011;9763;48.780;9.212;2023-11-18T11:55:50;1.30;;;0.80;;
19257;SDS011;9763;48.780;9.212;2023-11-18T11:59:36;1.17;;;0.87;;
19257;SDS011;9763;48.780;9.212;2023-11-18T12:03:18;6.30;;;1.33;;
19257;SDS011;9763;48.780;9.212;2023-11-18T12:06:46;1.60;;;1.10;;
19257;SDS011;9763;48.780;9.212;2023-11-18T12:10:22;1.50;;;1.10;;
19257;SDS011;9763;48.780;9.212;2023-11-18T12:13:59;1.30;;;1.00;;
19257;SDS011;9763;48.780;9.212;2023-11-18T12:17:38;1.13;;;0.73;;
19257;SDS011;9763;48.780;9.212;2023-11-18T12:21:55;1.50;;;0.80;;
19257;SDS011;9763;48.780;9.212;2023-11-18T12:29:02;1.20;;;0.80;;
19257;SDS011;9763;48.780;9.212;2023-11-18T12:40:40;1.20;;;0.80;;
19257;SDS011;9763;48.780;9.212;2023-11-18T12:44:23;1.20;;;0.90;;
19257;SDS011;9763;48.780;9.212;2023-11-18T12:47:54;4.63;;;0.73;;
19257;SDS011;9763;48.780;9.212;2023-11-18T12:51:19;1.40;;;0.90;;
19257;SDS011;9763;48.780;9.212;2023-11-18T12:54:45;2.23;;;0.70;;
19257;SDS011;9763;48.780;9.212;2023-11-18T12:58:15;1.40;;;0.80;;
19257;SDS011;9763;48.780;9.212;2023-11-18T13:01:40;1.30;;;0.80;;
19257;SDS011;9763;48.780;9.212;2023-11-18T13:05:04;1.10;;;0.73;;
19257;SDS011;9763;48.780;9.212;2023-11-18T13:08:31;1.30;;;0.70;;
19257;SDS011;9763;48.780;9.212;2023-11-18T13:11:54;1.17;;;0.70;;
19257;SDS011;9763;48.780;9.212;2023-11-18T13:15:27;1.20;;;0.80;;
19257;SDS011;9763;48.780;9.212;2023-11-18T13:18:52;1.20;;;0.70;;
19257;SDS011;9763;48.780;9.212;2023-11-18T13:22:18;1.20;;;0.80;;
19257;SDS011;9763;48.780;9.212;2023-11-18T13:25:42;1.20;;;0.77;;
19257;SDS011;9763;48.780;9.212;2023-11-18T13:29:06;1.30;;;0.90;;
19257;SDS011;9763;48.780;9.212;2023-11-18T13:32:32;1.40;;;0.90;;
19257;SDS011;9763;48.780;9.212;2023-11-18T13:35:56;1.10;;;0.70;;
19257;SDS011;9763;48.780;9.212;2023-11-18T13:39:20;1.67;;;0.90;;
19257;SDS011;9763;48.780;9.212;2023-11-18T13:42:44;1.20;;;0.80;;
19257;SDS011;9763;48.780;9.212;2023-11-18T13:46:10;1.10;;;0.80;;
19257;SDS011;9763;48.780;9.212;2023-11-18T13:49:36;2.33;;;0.70;;
19257;SDS011;9763;48.780;9.212;2023-11-18T13:53:01;1.30;;;0.90;;
19257;SDS011;9763;48.780;9.212;2023-11-18T13:56:27;1.77;;;0.90;;
19257;SDS011;9763;48.780;9.212;2023-11-18T13:59:52;1.80;;;1.00;;
19257;SDS011;9763;48.780;9.212;2023-11-18T14:03:16;1.57;;;1.00;;
19257;SDS011;9763;48.780;9.212;2023-11-18T14:06:41;1.50;;;1.00;;
19257;SDS011;9763;48.780;9.212;2023-11-18T14:10:05;1.60;;;1.10;;
19257;SDS011;9763;48.780;9.212;2023-11-18T14:13:34;2.40;;;0.97;;
19257;SDS011;9763;48.780;9.212;2023-11-18T14:16:59;1.30;;;1.00;;
19257;SDS011;9763;48.780;9.212;2023-11-18T14:20:23;5.43;;;1.13;;
19257;SDS011;9763;48.780;9.212;2023-11-18T14:23:48;1.30;;;1.10;;
19257;SDS011;9763;48.780;9.212;2023-11-18T14:27:12;1.60;;;1.10;;
19257;SDS011;9763;48.780;9.212;2023-11-18T14:30:35;1.60;;;1.50;;
19257;SDS011;9763;48.780;9.212;2023-11-18T14:33:59;1.57;;;1.33;;
19257;SDS011;9763;48.780;9.212;2023-11-18T14:37:23;1.40;;;1.30;;
19257;SDS011;9763;48.780;9.212;2023-11-18T14:40:48;1.57;;;1.23;;
19257;SDS011;9763;48.780;9.212;2023-11-18T14:44:12;1.50;;;1.37;;
19257;SDS011;9763;48.780;9.212;2023-11-18T14:47:35;3.80;;;1.67;;
19257;SDS011;9763;48.780;9.212;2023-11-18T14:50:59;1.77;;;1.50;;
19257;SDS011;9763;48.780;9.212;2023-11-18T14:54:23;1.70;;;1.40;;
19257;SDS011;9763;48.780;9.212;2023-11-18T14:57:48;1.40;;;1.10;;
19257;SDS011;9763;48.780;9.212;2023-11-18T15:01:12;1.53;;;1.30;;
19257;SDS011;9763;48.780;9.212;2023-11-18T15:04:36;1.40;;;1.23;;
19257;SDS011;9763;48.780;9.212;2023-11-18T15:08:00;1.80;;;1.57;;
19257;SDS011;9763;48.780;9.212;2023-11-18T15:11:24;1.73;;;1.40;;
19257;SDS011;9763;48.780;9.212;2023-11-18T15:14:49;1.87;;;1.40;;
19257;SDS011;9763;48.780;9.212;2023-11-18T15:18:13;1.63;;;1.53;;
19257;SDS011;9763;48.780;9.212;2023-11-18T15:21:39;1.70;;;1.60;;
19257;SDS011;9763;48.780;9.212;2023-11-18T15:25:04;1.90;;;1.70;;
19257;SDS011;9763;48.780;9.212;2023-11-18T15:28:32;2.33;;;1.90;;
19257;SDS011;9763;48.780;9.212;2023-11-18T15:31:58;1.90;;;1.70;;
19257;SDS011;9763;48.780;9.212;2023-11-18T15:35:21;3.93;;;1.57;;
19257;SDS011;9763;48.780;9.212;2023-11-18T15:38:46;2.43;;;1.73;;
19257;SDS011;9763;48.780;9.212;2023-11-18T15:42:09;2.20;;;1.40;;
19257;SDS011;9763;48.780;9.212;2023-11-18T15:45:36;1.83;;;1.60;;
19257;SDS011;9763;48.780;9.212;2023-11-18T15:49:01;1.93;;;1.73;;
19257;SDS011;9763;48.780;9.212;2023-11-18T15:52:24;1.77;;;1.23;;
19257;SDS011;9763;48.780;9.212;2023-11-18T15:55:50;1.70;;;1.60;;
19257;SDS011;9763;48.780;9.212;2023-11-18T15:59:14;2.33;;;1.90;;
19257;SDS011;9763;48.780;9.212;2023-11-18T16:02:38;1.87;;;1.60;;
19257;SDS011;9763;48.780;9.212;2023-11-18T16:06:04;1.90;;;1.53;;
19257;SDS011;9763;48.780;9.212;2023-11-18T16:09:29;2.07;;;1.67;;
19257;SDS011;9763;48.780;9.212;2023-11-18T16:12:53;4.20;;;3.47;;
19257;SDS011;9763;48.780;9.212;2023-11-18T16:16:19;3.27;;;2.50;;
19257;SDS011;9763;48.780;9.212;2023-11-18T16:19:46;2.90;;;2.60;;
19257;SDS011;9763;48.780;9.212;2023-11-18T16:23:11;2.90;;;2.60;;
19257;SDS011;9763;48.780;9.212;2023-11-18T16:26:34;3.37;;;2.30;;
19257;SDS011;9763;48.780;9.212;2023-11-18T16:29:58;2.20;;;1.77;;
19257;SDS011;9763;48.780;9.212;2023-11-18T16:33:23;1.80;;;1.67;;
19257;SDS011;9763;48.780;9.212;2023-11-18T16:36:47;3.03;;;1.73;;
19257;SDS011;9763;48.780;9.212;2023-11-18T16:40:13;1.40;;;1.20;;
19257;SDS011;9763;48.780;9.212;2023-11-18T16:43:38;1.50;;;1.30;;
19257;SDS011;9763;48.780;9.212;2023-11-18T16:47:01;1.60;;;1.30;;
19257;SDS011;9763;48.780;9.212;2023-11-18T16:50:25;1.43;;;1.23;;
19257;SDS011;9763;48.780;9.212;2023-11-18T16:53:49;2.70;;;1.50;;
19257;SDS011;9763;48.780;9.212;2023-11-18T16:57:15;1.73;;;1.30;;
19257;SDS011;9763;48.780;9.212;2023-11-18T17:00:39;1.67;;;1.57;;
19257;SDS011;9763;48.780;9.212;2023-11-18T17:04:03;1.37;;;1.17;;
19257;SDS011;9763;48.780;9.212;2023-11-18T17:07:29;1.30;;;1.10;;
19257;SDS011;9763;48.780;9.212;2023-11-18T17:10:52;1.93;;;1.50;;
19257;SDS011;9763;48.780;9.212;2023-11-18T17:14:17;1.53;;;1.30;;
19257;SDS011;9763;48.780;9.212;2023-11-18T17:17:41;1.60;;;1.13;;
19257;SDS011;9763;48.780;9.212;2023-11-18T17:21:06;1.40;;;1.20;;
19257;SDS011;9763;48.780;9.212;2023-11-18T17:24:30;1.30;;;1.10;;
19257;SDS011;9763;48.780;9.212;2023-11-18T17:27:54;1.50;;;1.33;;
19257;SDS011;9763;48.780;9.212;2023-11-18T17:31:19;1.27;;;1.00;;
19257;SDS011;9763;48.780;9.212;2023-11-18T17:34:44;1.57;;;1.20;;
19257;SDS011;9763;48.780;9.212;2023-11-18T17:38:07;1.40;;;1.23;;
19257;SDS011;9763;48.780;9.212;2023-11-18T17:41:32;1.60;;;1.30;;
19257;SDS011;9763;48.780;9.212;2023-11-18T17:55:24;1.30;;;1.10;;
19257;SDS011;9763;48.780;9.212;2023-11-18T17:58:49;1.50;;;1.20;;
19257;SDS011;9763;48.780;9.212;2023-11-18T18:02:14;1.50;;;1.10;;
19257;SDS011;9763;48.780;9.212;2023-11-18T18:05:38;1.50;;;1.37;;
19257;SDS011;9763;48.780;9.212;2023-11-18T18:09:02;1.40;;;1.20;;
19257;SDS011;9763;48.780;9.212;2023-11-18T18:12:28;2.23;;;1.27;;
19257;SDS011;9763;48.780;9.212;2023-11-18T18:15:51;1.20;;;1.00;;
19257;SDS011;9763;48.780;9.212;2023-11-18T18:19:15;1.30;;;1.00;;
19257;SDS011;9763;48.780;9.212;2023-11-18T18:22:40;1.70;;;1.40;;
19257;SDS011;9763;48.780;9.212;2023-11-18T18:26:05;1.73;;;1.10;;
19257;SDS011;9763;48.780;9.212;2023-11-18T18:29:30;1.67;;;1.47;;
19257;SDS011;9763;48.780;9.212;2023-11-18T18:32:54;2.07;;;1.47;;
19257;SDS011;9763;48.780;9.212;2023-11-18T18:36:18;1.40;;;1.20;;
19257;SDS011;9763;48.780;9.212;2023-11-18T18:39:42;1.70;;;1.30;;
19257;SDS011;9763;48.780;9.212;2023-11-18T18:43:08;1.87;;;1.30;;
19257;SDS011;9763;48.780;9.212;2023-11-18T18:46:33;1.30;;;1.10;;
19257;SDS011;9763;48.780;9.212;2023-11-18T18:49:57;1.97;;;1.30;;
19257;SDS011;9763;48.780;9.212;2023-11-18T18:53:21;3.10;;;2.50;;
19257;SDS011;9763;48.780;9.212;2023-11-18T18:56:44;2.47;;;1.47;;
19257;SDS011;9763;48.780;9.212;2023-11-18T19:00:09;2.90;;;1.60;;
19257;SDS011;9763;48.780;9.212;2023-11-18T19:03:36;1.40;;;1.20;;
19257;SDS011;9763;48.780;9.212;2023-11-18T19:06:59;2.10;;;1.40;;
19257;SDS011;9763;48.780;9.212;2023-11-18T19:10:24;2.10;;;1.50;;
19257;SDS011;9763;48.780;9.212;2023-11-18T19:13:47;1.50;;;1.17;;
19257;SDS011;9763;48.780;9.212;2023-11-18T19:17:11;2.13;;;1.63;;
19257;SDS011;9763;48.780;9.212;2023-11-18T19:20:38;2.63;;;1.60;;
19257;SDS011;9763;48.780;9.212;2023-11-18T19:24:01;2.57;;;1.80;;
19257;SDS011;9763;48.780;9.212;2023-11-18T19:27:26;2.20;;;1.60;;
19257;SDS011;9763;48.780;9.212;2023-11-18T19:30:49;2.27;;;1.67;;
19257;SDS011;9763;48.780;9.212;2023-11-18T19:34:13;1.87;;;1.67;;
19257;SDS011;9763;48.780;9.212;2023-11-18T19:37:38;2.07;;;1.73;;
19257;SDS011;9763;48.780;9.212;2023-11-18T19:41:02;1.70;;;1.60;;
19257;SDS011;9763;48.780;9.212;2023-11-18T19:44:27;2.10;;;1.90;;
19257;SDS011;9763;48.780;9.212;2023-11-18T19:47:52;3.80;;;1.90;;
19257;SDS011;9763;48.780;9.212;2023-11-18T19:51:16;1.60;;;1.50;;
19257;SDS011;9763;48.780;9.212;2023-11-18T19:54:41;2.90;;;1.97;;
19257;SDS011;9763;48.780;9.212;2023-11-18T19:58:06;1.93;;;1.80;;
19257;SDS011;9763;48.780;9.212;2023-11-18T20:01:30;2.20;;;1.97;;
19257;SDS011;9763;48.780;9.212;2023-11-18T20:04:55;1.97;;;1.77;;
19257;SDS011;9763;48.780;9.212;2023-11-18T20:08:20;1.70;;;1.60;;
19257;SDS011;9763;48.780;9.212;2023-11-18T20:11:51;3.30;;;2.30;;
19257;SDS011;9763;48.780;9.212;2023-11-18T20:15:25;1.97;;;1.77;;
19257;SDS011;9763;48.780;9.212;2023-11-18T20:18:50;2.03;;;1.80;;
19257;SDS011;9763;48.780;9.212;2023-11-18T20:22:13;1.83;;;1.70;;
19257;SDS011;9763;48.780;9.212;2023-11-18T20:25:37;1.70;;;1.60;;
19257;SDS011;9763;48.780;9.212;2023-11-18T20:29:02;1.90;;;1.50;;
19257;SDS011;9763;48.780;9.212;2023-11-18T20:32:26;4.10;;;2.00;;
19257;SDS011;9763;48.780;9.212;2023-11-18T20:35:50;1.90;;;1.50;;
19257;SDS011;9763;48.780;9.212;2023-11-18T20:39:14;1.47;;;1.20;;
19257;SDS011;9763;48.780;9.212;2023-11-18T20:42:40;1.50;;;1.27;;
19257;SDS011;9763;48.780;9.212;2023-11-18T20:46:05;1.40;;;1.23;;
19257;SDS011;9763;48.780;9.212;2023-11-18T20:49:33;1.90;;;1.70;;
19257;SDS011;9763;48.780;9.212;2023-11-18T20:52:56;1.67;;;1.40;;
19257;SDS011;9763;48.780;9.212;2023-11-18T20:56:21;1.57;;;1.43;;
19257;SDS011;9763;48.780;9.212;2023-11-18T20:59:46;2.10;;;1.90;;
19257;SDS011;9763;48.780;9.212;2023-11-18T21:03:11;1.93;;;1.83;;
19257;SDS011;9763;48.780;9.212;2023-11-18T21:06:36;1.87;;;1.60;;
19257;SDS011;9763;48.780;9.212;2023-11-18T21:09:59;2.00;;;1.80;;
19257;SDS011;9763;48.780;9.212;2023-11-18T21:13:26;1.90;;;1.70;;
19257;SDS011;9763;48.780;9.212;2023-11-18T21:16:49;1.87;;;1.37;;
19257;SDS011;9763;48.780;9.212;2023-11-18T21:20:14;1.40;;;1.10;;
19257;SDS011;9763;48.780;9.212;2023-11-18T21:23:39;1.57;;;1.27;;
19257;SDS011;9763;48.780;9.212;2023-11-18T21:27:03;1.53;;;1.27;;
19257;SDS011;9763;48.780;9.212;2023-11-18T21:30:28;1.60;;;1.10;;
19257;SDS011;9763;48.780;9.212;2023-11-18T21:33:52;1.30;;;1.10;;
19257;SDS011;9763;48.780;9.212;2023-11-18T21:37:17;1.53;;;1.23;;
19257;SDS011;9763;48.780;9.212;2023-11-18T21:40:41;3.07;;;1.53;;
19257;SDS011;9763;48.780;9.212;2023-11-18T21:44:05;2.00;;;1.50;;